1PS0 weather

Ickes Airport
Osterburg, Pennsylvania, United States

Public forecast

Using degrees Fahrenheit for public forecast. Weather courtesy of forecast.io.

METAR (pilot weather report)

Closest report is Bedford County Airport, 6.8 nm (12.7 km) SSE. Retrieved 2019/05/24 06:35 UTC (0 seconds ago):

KHMZ 240635Z AUTO 31009G15KT 10SM SCT034 SCT041 SCT050 19/14 A2999 RMK AO2 T01930144

TAF (pilot weather forecast)

Closest forecast is Altoona Blair County Airport, 12.9 nm (23.8 km) ENE. Retrieved 2019/05/24 06:48 UTC (0 seconds ago):

TAF KAOO 240546Z 2406/2506 31011G19KT P6SM FEW022 BKN050 OVC100 FM241400 31012G20KT P6SM SCT050 FM250300 02003KT P6SM OVC100